Terminal Aerodrome Forecast
Issued by NWS

Home | Current Version | Previous Version | Text Only | Print | Product List | Glossary On
Versions: 1 2 3 4 5 6 7 8 9 10 11 12 13 14 15 16 17 18 19 20 21 22 23 24 25 26 27
000
FTPA31 PHFO 210500 AAA
TAFOGG
TAF AMD
PHOG 210521Z 2105/2124 06015G25KT P6SM VCSH FEW020 BKN035 OVC045
     FM212100 07020G30KT P6SM FEW030 BKN045
      AMD LTD TO WX VIS AND WIND 2109/2116=

USA.gov is the U.S. government's official web portal to all federal, state and local government web resources and services.